createdAt,value
2018-12-05T00:02:31.038Z,5.30
2018-12-05T00:05:03.103Z,5.30
2018-12-05T00:07:55.018Z,5.30
2018-12-05T00:10:29.737Z,5.30
2018-12-05T00:16:04.207Z,5.30
2018-12-05T00:18:38.152Z,5.30
2018-12-05T00:21:12.677Z,5.30
2018-12-05T00:23:50.240Z,5.40
2018-12-05T00:26:24.323Z,5.40
2018-12-05T00:28:58.189Z,5.40
2018-12-05T00:31:32.091Z,5.40
2018-12-05T00:34:06.276Z,5.40
2018-12-05T00:36:38.706Z,5.40
2018-12-05T00:39:14.809Z,5.40
2018-12-05T00:41:47.276Z,5.50
2018-12-05T00:44:21.390Z,5.50
2018-12-05T00:46:56.279Z,5.50
2018-12-05T00:49:30.933Z,5.50
2018-12-05T00:52:04.928Z,5.50
2018-12-05T00:54:39.124Z,5.50
2018-12-05T00:57:13.037Z,5.50
2018-12-05T00:59:46.976Z,5.60
2018-12-05T01:02:20.893Z,5.60
2018-12-05T01:04:54.938Z,5.60
2018-12-05T01:07:28.879Z,5.60
2018-12-05T01:10:03.678Z,5.70
2018-12-05T01:12:56.504Z,5.70
2018-12-05T01:15:45.220Z,5.70
2018-12-05T01:18:26.428Z,5.70
2018-12-05T01:21:00.952Z,5.70
2018-12-05T01:23:46.596Z,5.70
2018-12-05T01:26:18.036Z,5.70
2018-12-05T01:28:52.266Z,5.80
2018-12-05T01:31:26.339Z,5.70
2018-12-05T01:34:07.177Z,5.80
2018-12-05T01:36:41.676Z,5.80
2018-12-05T01:39:16.201Z,5.80
2018-12-05T01:42:10.286Z,5.80
2018-12-05T01:44:44.476Z,5.80
2018-12-05T01:47:18.641Z,5.80
2018-12-05T01:49:51.019Z,5.80
2018-12-05T01:52:22.374Z,5.80
2018-12-05T01:54:56.472Z,5.80
2018-12-05T01:57:28.535Z,5.80
2018-12-05T02:03:10.468Z,5.80
2018-12-05T02:05:41.713Z,5.80
2018-12-05T02:08:13.149Z,5.80
2018-12-05T02:11:02.076Z,5.80
2018-12-05T02:13:41.599Z,5.80
2018-12-05T02:16:15.902Z,5.80
2018-12-05T02:18:47.133Z,5.80
2018-12-05T02:21:22.039Z,5.80
2018-12-05T02:23:55.878Z,5.80
2018-12-05T02:26:29.879Z,5.80
2018-12-05T02:29:04.119Z,5.80
2018-12-05T02:31:38.083Z,5.80
2018-12-05T02:34:12.099Z,5.80
2018-12-05T02:36:44.316Z,5.80
2018-12-05T02:39:18.932Z,5.80
2018-12-05T02:41:52.980Z,5.70
2018-12-05T02:44:27.196Z,5.70
2018-12-05T02:47:01.385Z,5.70
2018-12-05T02:49:35.386Z,5.70
2018-12-05T02:52:11.204Z,5.60
2018-12-05T02:54:45.349Z,5.60
2018-12-05T02:57:19.721Z,5.50
2018-12-05T03:02:54.301Z,5.50
2018-12-05T03:05:28.315Z,5.50
2018-12-05T03:08:02.210Z,5.40
2018-12-05T03:10:36.080Z,5.40
2018-12-05T03:13:10.265Z,5.30
2018-12-05T03:15:44.425Z,5.30
2018-12-05T03:18:18.675Z,5.20
2018-12-05T03:20:52.582Z,5.20
2018-12-05T03:23:30.608Z,5.10
2018-12-05T03:26:04.935Z,5.00
2018-12-05T03:28:39.124Z,4.90
2018-12-05T03:31:13.595Z,4.80
2018-12-05T03:33:47.579Z,4.80
2018-12-05T03:36:21.448Z,4.70
2018-12-05T03:38:58.652Z,4.70
2018-12-05T03:41:35.327Z,4.60
2018-12-05T03:44:07.256Z,4.60
2018-12-05T03:46:54.691Z,4.50
2018-12-05T03:49:29.409Z,4.50
2018-12-05T04:05:06.063Z,4.40
2018-12-05T04:07:40.701Z,4.40
2018-12-05T04:17:56.435Z,4.40
2018-12-05T04:20:37.747Z,4.50
2018-12-05T04:23:12.346Z,4.50
2018-12-05T04:25:46.848Z,4.50
2018-12-05T04:28:23.531Z,4.50
2018-12-05T04:30:57.736Z,4.50
2018-12-05T04:33:31.849Z,4.50
2018-12-05T04:39:08.378Z,4.50
2018-12-05T04:41:42.180Z,4.50
2018-12-05T04:44:26.087Z,4.50
2018-12-05T04:47:03.627Z,4.60
2018-12-05T04:49:37.664Z,4.60
2018-12-05T04:52:11.816Z,4.60
2018-12-05T04:54:46.269Z,4.60
2018-12-05T04:57:24.052Z,4.70
2018-12-05T05:00:11.737Z,4.70
2018-12-05T05:02:46.386Z,4.70
2018-12-05T05:05:20.865Z,4.80
2018-12-05T05:07:52.857Z,4.80
2018-12-05T05:10:27.381Z,4.80
2018-12-05T05:13:15.384Z,4.80
2018-12-05T05:15:47.256Z,4.90
2018-12-05T05:18:21.191Z,4.90
2018-12-05T05:20:55.194Z,4.90
2018-12-05T05:23:29.156Z,5.00
2018-12-05T05:32:25.747Z,5.10
2018-12-05T05:35:15.833Z,5.10
2018-12-05T05:38:01.215Z,5.10
2018-12-05T05:40:35.670Z,5.20
2018-12-05T05:43:10.081Z,5.20
2018-12-05T05:45:45.836Z,5.20
2018-12-05T05:48:17.494Z,5.20
2018-12-05T05:50:48.650Z,5.20
2018-12-05T05:53:26.557Z,5.20
2018-12-05T05:56:07.208Z,5.30
2018-12-05T05:58:39.983Z,5.30
2018-12-05T06:01:14.455Z,5.30
2018-12-05T06:03:46.419Z,5.40
2018-12-05T06:06:18.427Z,5.40
2018-12-05T06:08:54.484Z,5.40
2018-12-05T06:11:28.824Z,5.40
2018-12-05T06:14:16.940Z,5.40
2018-12-05T06:16:51.460Z,5.40
2018-12-05T06:19:24.995Z,5.40
2018-12-05T06:21:59.669Z,5.40
2018-12-05T06:34:44.785Z,5.50
2018-12-05T06:37:19.155Z,5.50
2018-12-05T06:39:53.816Z,5.50
2018-12-05T06:42:28.245Z,5.60
2018-12-05T06:45:09.740Z,5.50
2018-12-05T06:47:44.265Z,5.50
2018-12-05T06:50:18.475Z,5.50
2018-12-05T06:52:52.662Z,5.50
2018-12-05T06:58:29.815Z,5.50
2018-12-05T07:01:27.771Z,5.50
2018-12-05T07:04:04.171Z,5.40
2018-12-05T07:06:40.165Z,5.40
2018-12-05T07:09:14.680Z,5.40
2018-12-05T07:11:48.668Z,5.40
2018-12-05T07:14:33.330Z,5.40
2018-12-05T07:17:07.903Z,5.40
2018-12-05T07:20:02.830Z,5.40
2018-12-05T07:22:39.839Z,5.40
2018-12-05T07:25:11.616Z,5.30
2018-12-05T07:27:46.368Z,5.30
2018-12-05T07:30:20.275Z,5.30
2018-12-05T07:32:51.752Z,5.30
2018-12-05T07:35:41.976Z,5.30
2018-12-05T07:38:19.460Z,5.30
2018-12-05T07:40:50.103Z,5.30
2018-12-05T07:43:24.460Z,5.30
2018-12-05T07:45:55.837Z,5.30
2018-12-05T07:48:29.999Z,5.40
2018-12-05T07:51:04.069Z,5.40
2018-12-05T07:53:38.040Z,5.40
2018-12-05T07:56:12.258Z,5.40
2018-12-05T07:59:02.815Z,5.40
2018-12-05T08:01:37.354Z,5.50
2018-12-05T08:04:16.165Z,5.50
2018-12-05T08:06:48.230Z,5.50
2018-12-05T08:09:22.117Z,5.50
2018-12-05T08:11:56.016Z,5.50
2018-12-05T08:14:43.711Z,5.60
2018-12-05T08:17:24.967Z,5.60
2018-12-05T08:19:59.261Z,5.60
2018-12-05T08:22:33.317Z,5.70
2018-12-05T08:25:07.514Z,5.70
2018-12-05T08:27:41.412Z,5.70
2018-12-05T08:33:21.829Z,5.80
2018-12-05T08:35:55.898Z,5.80
2018-12-05T08:38:34.622Z,5.90
2018-12-05T08:41:08.854Z,5.90
2018-12-05T08:43:45.452Z,5.90
2018-12-05T08:46:32.809Z,5.90
2018-12-05T08:49:07.257Z,6.00
2018-12-05T08:54:24.709Z,6.10
2018-12-05T08:56:58.909Z,6.10
2018-12-05T08:59:32.920Z,6.20
2018-12-05T09:02:06.889Z,6.20
2018-12-05T09:04:40.779Z,6.20
2018-12-05T09:07:12.159Z,6.30
2018-12-05T09:09:46.332Z,6.30
2018-12-05T09:12:20.355Z,6.30
2018-12-05T09:14:54.573Z,6.40
2018-12-05T09:17:25.989Z,6.40
2018-12-05T09:20:00.052Z,6.40
2018-12-05T09:22:31.697Z,6.40
2018-12-05T09:25:04.074Z,6.50
2018-12-05T09:27:36.024Z,6.50
2018-12-05T09:30:14.676Z,6.60
2018-12-05T09:32:46.031Z,6.60
2018-12-05T09:35:20.059Z,6.70
2018-12-05T09:37:55.983Z,6.70
2018-12-05T09:40:34.263Z,6.80
2018-12-05T09:43:08.753Z,6.80
2018-12-05T09:45:42.668Z,6.80
2018-12-05T09:48:16.756Z,6.90
2018-12-05T09:50:52.464Z,7.00
2018-12-05T09:53:27.696Z,7.00
2018-12-05T09:56:05.086Z,7.10
2018-12-05T10:01:40.264Z,7.20
2018-12-05T10:04:14.556Z,7.30
2018-12-05T10:06:49.170Z,7.30
2018-12-05T10:09:33.635Z,7.40
2018-12-05T10:12:22.529Z,7.50
2018-12-05T10:14:57.061Z,7.50
2018-12-05T10:17:30.933Z,7.60
2018-12-05T10:20:03.625Z,7.60
2018-12-05T10:22:38.062Z,7.60
2018-12-05T10:25:25.705Z,7.70
2018-12-05T10:28:00.433Z,7.70
2018-12-05T10:30:32.586Z,7.80
2018-12-05T10:33:06.754Z,7.80
2018-12-05T10:35:40.965Z,7.80
2018-12-05T10:38:15.028Z,7.80
2018-12-05T10:40:49.499Z,7.90
2018-12-05T10:43:29.608Z,7.90
2018-12-05T10:46:04.115Z,7.90
2018-12-05T10:48:40.595Z,8.00
2018-12-05T10:51:15.625Z,8.10
2018-12-05T10:53:47.545Z,8.10
2018-12-05T10:56:25.862Z,8.10
2018-12-05T10:59:00.053Z,8.20
2018-12-05T11:01:39.708Z,8.20
2018-12-05T11:04:21.090Z,8.20
2018-12-05T11:07:04.462Z,8.30
2018-12-05T11:09:42.669Z,8.30
2018-12-05T11:12:22.898Z,8.30
2018-12-05T11:15:16.160Z,8.40
2018-12-05T11:17:55.986Z,8.40
2018-12-05T11:20:33.885Z,8.50
2018-12-05T11:23:11.725Z,8.50
2018-12-05T11:26:01.368Z,8.60
2018-12-05T11:28:33.848Z,8.60
2018-12-05T11:31:13.944Z,8.70
2018-12-05T11:34:01.740Z,8.80
2018-12-05T11:36:40.790Z,8.80
2018-12-05T11:39:25.942Z,8.90
2018-12-05T11:42:04.582Z,9.00
2018-12-05T11:44:39.116Z,9.00
2018-12-05T11:47:32.353Z,9.10
2018-12-05T11:50:06.889Z,9.20
2018-12-05T12:00:25.318Z,9.70
2018-12-05T12:02:59.758Z,9.80
2018-12-05T12:05:35.768Z,9.90
2018-12-05T12:08:09.911Z,9.90
2018-12-05T12:10:41.162Z,9.90
2018-12-05T12:13:14.939Z,9.90
2018-12-05T12:15:49.170Z,9.90
2018-12-05T12:18:21.214Z,9.90
2018-12-05T12:20:56.946Z,9.90
2018-12-05T12:23:31.106Z,9.90
2018-12-05T12:26:05.216Z,9.90
2018-12-05T12:28:52.636Z,10.00
2018-12-05T12:31:27.065Z,10.00
2018-12-05T12:34:01.282Z,10.00
2018-12-05T12:36:35.747Z,10.00
2018-12-05T12:39:07.950Z,10.00
2018-12-05T12:41:46.486Z,10.00
2018-12-05T12:44:20.649Z,10.10
2018-12-05T12:47:05.544Z,10.10
2018-12-05T12:49:42.004Z,10.10
2018-12-05T12:52:17.981Z,10.20
2018-12-05T12:54:52.151Z,10.20
2018-12-05T12:57:26.964Z,10.20
2018-12-05T13:00:01.101Z,10.20
2018-12-05T13:02:35.694Z,10.20
2018-12-05T13:07:45.397Z,10.20
2018-12-05T13:10:19.543Z,10.20
2018-12-05T13:12:53.572Z,10.20
2018-12-05T13:15:27.941Z,10.30
2018-12-05T13:18:02.637Z,10.20
2018-12-05T13:20:36.648Z,10.30
2018-12-05T13:26:14.592Z,10.30
2018-12-05T13:28:52.597Z,10.30
2018-12-05T13:31:35.418Z,10.40
2018-12-05T13:34:16.424Z,10.30
2018-12-05T13:36:50.961Z,10.30
2018-12-05T13:39:24.869Z,10.30
2018-12-05T13:41:58.956Z,10.30
2018-12-05T13:44:46.640Z,10.30
2018-12-05T13:47:19.545Z,10.20
2018-12-05T13:49:53.450Z,10.20
2018-12-05T13:52:27.450Z,10.20
2018-12-05T13:55:05.671Z,10.10
2018-12-05T13:57:41.395Z,10.10
2018-12-05T14:00:15.589Z,10.20
2018-12-05T14:02:50.050Z,10.10
2018-12-05T14:05:35.593Z,10.10
2018-12-05T14:08:10.097Z,10.10
2018-12-05T14:10:50.808Z,10.10
2018-12-05T14:13:22.258Z,10.10
2018-12-05T14:15:56.715Z,10.10
2018-12-05T14:18:32.338Z,10.10
2018-12-05T14:21:04.471Z,10.00
2018-12-05T14:23:51.365Z,10.00
2018-12-05T14:26:25.494Z,10.00
2018-12-05T14:28:59.990Z,10.00
2018-12-05T14:31:33.970Z,10.00
2018-12-05T14:34:08.537Z,10.00
2018-12-05T14:36:42.741Z,10.00
2018-12-05T14:39:16.996Z,9.90
2018-12-05T14:41:51.145Z,9.90
2018-12-05T14:44:25.341Z,9.90
2018-12-05T14:50:05.753Z,9.90
2018-12-05T14:52:40.057Z,9.90
2018-12-05T14:55:14.500Z,9.90
2018-12-05T14:57:49.225Z,9.90
2018-12-05T15:00:27.148Z,9.90
2018-12-05T15:03:01.509Z,9.90
2018-12-05T15:05:35.719Z,9.90
2018-12-05T15:08:11.440Z,9.90
2018-12-05T15:10:46.065Z,9.90
2018-12-05T15:13:23.170Z,10.00
2018-12-05T15:15:55.263Z,9.90
2018-12-05T15:18:33.881Z,9.90
2018-12-05T15:23:53.741Z,10.00
2018-12-05T15:26:26.331Z,10.00
2018-12-05T15:29:02.489Z,10.00
2018-12-05T15:31:36.942Z,9.90
2018-12-05T15:34:15.718Z,10.00
2018-12-05T15:39:49.941Z,10.00
2018-12-05T15:42:24.215Z,10.00
2018-12-05T15:44:58.462Z,10.00
2018-12-05T15:50:44.129Z,10.00
2018-12-05T15:53:22.392Z,10.00
2018-12-05T15:55:57.380Z,10.00
2018-12-05T15:58:32.457Z,10.00
2018-12-05T16:01:06.744Z,10.00
2018-12-05T16:03:43.385Z,10.00
2018-12-05T16:06:17.492Z,10.00
2018-12-05T16:09:03.096Z,10.00
2018-12-05T16:11:39.344Z,10.00
2018-12-05T16:14:13.377Z,10.00
2018-12-05T16:19:47.649Z,10.00
2018-12-05T16:22:22.509Z,10.00
2018-12-05T16:24:57.287Z,10.00
2018-12-05T16:27:32.074Z,10.00
2018-12-05T16:30:07.007Z,10.00
2018-12-05T16:32:41.312Z,10.10
2018-12-05T16:35:12.586Z,10.00
2018-12-05T16:37:47.402Z,10.00
2018-12-05T16:40:21.778Z,10.00
2018-12-05T16:42:55.950Z,10.00
2018-12-05T16:45:30.318Z,10.00
2018-12-05T16:48:04.289Z,10.00
2018-12-05T16:50:38.363Z,10.10
2018-12-05T16:53:12.890Z,10.00
2018-12-05T16:55:47.562Z,10.10
2018-12-05T16:58:21.799Z,10.10
2018-12-05T17:00:56.298Z,10.10
2018-12-05T17:03:30.701Z,10.10
2018-12-05T17:06:04.682Z,10.10
2018-12-05T17:08:38.906Z,10.10
2018-12-05T17:11:12.785Z,10.10
2018-12-05T17:13:46.849Z,10.10
2018-12-05T17:16:21.368Z,10.10
2018-12-05T17:19:08.594Z,10.10
2018-12-05T17:21:43.313Z,10.10
2018-12-05T17:24:17.827Z,10.10
2018-12-05T17:26:52.560Z,10.10
2018-12-05T17:29:26.588Z,10.10
2018-12-05T17:32:00.717Z,10.10
2018-12-05T17:34:35.920Z,10.10
2018-12-05T17:37:23.268Z,10.20
2018-12-05T17:40:08.773Z,10.20
2018-12-05T17:45:46.977Z,10.20
2018-12-05T17:48:33.605Z,10.20
2018-12-05T17:51:08.087Z,10.20
2018-12-05T17:53:42.235Z,10.20
2018-12-05T17:56:17.047Z,10.30
2018-12-05T17:58:49.130Z,10.20
2018-12-05T18:01:23.222Z,10.20
2018-12-05T18:03:57.218Z,10.20
2018-12-05T18:06:36.155Z,10.20
2018-12-05T18:09:10.472Z,10.30
2018-12-05T18:11:44.461Z,10.30
2018-12-05T18:14:18.622Z,10.30
2018-12-05T18:16:52.552Z,10.30
2018-12-05T18:19:24.653Z,10.30
2018-12-05T18:21:59.482Z,10.30
2018-12-05T18:24:48.008Z,10.30
2018-12-05T18:27:22.776Z,10.30
2018-12-05T18:29:57.110Z,10.30
2018-12-05T18:32:31.138Z,10.30
2018-12-05T18:35:05.536Z,10.30
2018-12-05T18:37:37.644Z,10.30
2018-12-05T18:40:11.587Z,10.30
2018-12-05T18:42:45.757Z,10.30
2018-12-05T18:48:31.712Z,10.20
2018-12-05T18:51:05.838Z,10.30
2018-12-05T18:53:39.979Z,10.20
2018-12-05T18:56:24.460Z,10.20
2018-12-05T18:58:58.968Z,10.20
2018-12-05T19:04:55.842Z,10.20
2018-12-05T19:07:30.022Z,10.20
2018-12-05T19:10:12.904Z,10.20
2018-12-05T19:12:47.397Z,10.20
2018-12-05T19:15:23.459Z,10.20
2018-12-05T19:17:57.620Z,10.20
2018-12-05T19:20:31.918Z,10.20
2018-12-05T19:23:05.919Z,10.30
2018-12-05T19:25:38.369Z,10.20
2018-12-05T19:28:12.398Z,10.20
2018-12-05T19:30:46.705Z,10.30
2018-12-05T19:33:20.967Z,10.30
2018-12-05T19:35:55.324Z,10.30
2018-12-05T19:38:28.154Z,10.30
2018-12-05T19:41:02.253Z,10.30
2018-12-05T19:43:36.729Z,10.30
2018-12-05T19:46:15.377Z,10.30
2018-12-05T19:48:49.425Z,10.30
2018-12-05T19:51:20.879Z,10.30
2018-12-05T19:53:59.781Z,10.30
2018-12-05T19:56:39.734Z,10.30
2018-12-05T20:02:35.893Z,10.30
2018-12-05T20:05:12.437Z,10.30
2018-12-05T20:07:46.590Z,10.30
2018-12-05T20:10:21.109Z,10.30
2018-12-05T20:12:55.164Z,10.30
2018-12-05T20:15:29.265Z,10.30
2018-12-05T20:18:03.372Z,10.30
2018-12-05T20:20:42.518Z,10.30
2018-12-05T20:23:14.692Z,10.30
2018-12-05T20:25:47.448Z,10.30
2018-12-05T20:28:32.197Z,10.40
2018-12-05T20:31:06.677Z,10.40
2018-12-05T20:33:41.010Z,10.40
2018-12-05T20:36:15.214Z,10.40
2018-12-05T20:38:46.853Z,10.40
2018-12-05T20:41:18.113Z,10.50
2018-12-05T20:43:53.207Z,10.40
2018-12-05T20:46:27.490Z,10.40
2018-12-05T20:49:01.635Z,10.50
2018-12-05T20:51:36.035Z,10.50
2018-12-05T20:54:10.657Z,10.50
2018-12-05T20:56:49.598Z,10.50
2018-12-05T20:59:23.535Z,10.50
2018-12-05T21:04:57.617Z,10.50
2018-12-05T21:07:29.071Z,10.50
2018-12-05T21:10:00.215Z,10.50
2018-12-05T21:12:34.354Z,10.50
2018-12-05T21:15:15.297Z,10.50
2018-12-05T21:17:49.774Z,10.50
2018-12-05T21:20:24.053Z,10.50
2018-12-05T21:23:23.285Z,10.60
2018-12-05T21:25:57.357Z,10.60
2018-12-05T21:28:32.155Z,10.60
2018-12-05T21:31:20.845Z,10.60
2018-12-05T21:33:53.583Z,10.60
2018-12-05T21:36:30.957Z,10.60
2018-12-05T21:39:30.048Z,10.60
2018-12-05T21:42:04.540Z,10.60
2018-12-05T21:47:39.653Z,10.60
2018-12-05T21:50:18.404Z,10.60
2018-12-05T21:52:50.368Z,10.60
2018-12-05T21:55:24.514Z,10.60
2018-12-05T21:57:58.901Z,10.60
2018-12-05T22:00:32.895Z,10.60
2018-12-05T22:03:20.418Z,10.60
2018-12-05T22:05:55.146Z,10.60
2018-12-05T22:08:26.547Z,10.60
2018-12-05T22:11:00.437Z,10.60
2018-12-05T22:13:35.092Z,10.60
2018-12-05T22:16:23.186Z,10.60
2018-12-05T22:18:56.589Z,10.60
2018-12-05T22:21:33.059Z,10.60
2018-12-05T22:27:07.073Z,10.60
2018-12-05T22:29:57.596Z,10.60
2018-12-05T22:32:32.292Z,10.60
2018-12-05T22:35:07.098Z,10.60
2018-12-05T22:37:38.939Z,10.60
2018-12-05T22:40:13.464Z,10.60
2018-12-05T22:42:48.162Z,10.60
2018-12-05T22:45:26.900Z,10.60
2018-12-05T22:48:01.650Z,10.60
2018-12-05T22:50:35.833Z,10.60
2018-12-05T22:53:07.277Z,10.60
2018-12-05T22:55:41.175Z,10.70
2018-12-05T22:58:13.200Z,10.70
2018-12-05T23:00:50.318Z,10.70
2018-12-05T23:03:28.958Z,10.70
2018-12-05T23:06:02.957Z,10.70
2018-12-05T23:08:37.197Z,10.70
2018-12-05T23:11:09.262Z,10.70
2018-12-05T23:13:41.369Z,10.70
2018-12-05T23:16:15.286Z,10.70
2018-12-05T23:18:49.653Z,10.70
2018-12-05T23:21:24.020Z,10.70
2018-12-05T23:27:03.293Z,10.80
2018-12-05T23:29:37.428Z,10.80
2018-12-05T23:32:11.710Z,10.80
2018-12-05T23:34:50.657Z,10.80
2018-12-05T23:37:25.163Z,10.80
2018-12-05T23:39:59.950Z,10.80
2018-12-05T23:42:34.118Z,10.70
2018-12-05T23:45:08.489Z,10.80
2018-12-05T23:47:40.485Z,10.80
2018-12-05T23:50:15.072Z,10.80
2018-12-05T23:52:48.958Z,10.80
2018-12-05T23:55:24.832Z,10.80
2018-12-05T23:57:58.911Z,10.90
